createdAt,value
2023-01-17T00:00:57.291Z,7.5
2023-01-17T00:01:57.493Z,7.57
2023-01-17T00:02:57.418Z,7.57
2023-01-17T00:03:57.625Z,7.53
2023-01-17T00:04:57.369Z,7.57
2023-01-17T00:05:57.358Z,7.53
2023-01-17T00:06:57.368Z,7.54
2023-01-17T00:07:57.173Z,7.57
2023-01-17T00:08:57.177Z,7.57
2023-01-17T00:09:57.256Z,7.58
2023-01-17T00:10:57.208Z,7.51
2023-01-17T00:11:57.501Z,7.47
2023-01-17T00:12:57.473Z,7.58
2023-01-17T00:13:57.210Z,7.47
2023-01-17T00:14:57.492Z,7.51
2023-01-17T00:15:57.636Z,7.5
2023-01-17T00:16:57.517Z,7.5
2023-01-17T00:17:57.542Z,7.47
2023-01-17T00:18:57.551Z,7.51
2023-01-17T00:19:57.657Z,7.53
2023-01-17T00:20:57.332Z,7.47
2023-01-17T00:21:57.600Z,7.5
2023-01-17T00:22:57.628Z,7.51
2023-01-17T00:23:57.644Z,7.5
2023-01-17T00:24:57.634Z,7.56
2023-01-17T00:25:57.656Z,7.48
2023-01-17T00:26:57.669Z,7.51
2023-01-17T00:27:57.681Z,7.51
2023-01-17T00:28:57.691Z,7.51
2023-01-17T00:29:57.697Z,7.51
2023-01-17T00:30:57.741Z,7.51
2023-01-17T00:31:57.732Z,7.47
2023-01-17T00:32:57.767Z,7.5
2023-01-17T00:33:57.767Z,7.5
2023-01-17T00:34:57.795Z,7.45
2023-01-17T00:35:57.916Z,7.53
2023-01-17T00:36:57.541Z,7.48
2023-01-17T00:37:57.566Z,7.48
2023-01-17T00:38:57.848Z,7.5
2023-01-17T00:39:57.605Z,7.53
2023-01-17T00:40:57.634Z,7.45
2023-01-17T00:41:57.630Z,7.5
2023-01-17T00:42:57.885Z,7.54
2023-01-17T00:43:57.404Z,7.45
2023-01-17T00:44:57.670Z,7.47
2023-01-17T00:45:57.943Z,7.48
2023-01-17T00:46:57.919Z,7.51
2023-01-17T00:47:59.407Z,7.5
2023-01-17T00:48:57.740Z,7.54
2023-01-17T00:49:58.001Z,7.4
2023-01-17T00:50:57.802Z,7.54
2023-01-17T00:51:58.163Z,7.45
2023-01-17T00:52:58.037Z,7.45
2023-01-17T00:53:57.787Z,7.45
2023-01-17T00:54:57.844Z,7.51
2023-01-17T00:55:58.096Z,7.51
2023-01-17T00:56:58.092Z,7.47
2023-01-17T00:57:58.155Z,7.53
2023-01-17T00:58:57.863Z,7.45
2023-01-17T00:59:58.154Z,7.48
2023-01-17T01:00:58.014Z,7.48
2023-01-17T01:01:58.974Z,7.4
2023-01-17T01:02:58.180Z,7.56
2023-01-17T01:03:58.210Z,7.5
2023-01-17T01:04:57.967Z,7.43
2023-01-17T01:05:58.000Z,7.45
2023-01-17T01:06:57.989Z,7.56
2023-01-17T01:07:58.328Z,7.42
2023-01-17T01:08:58.270Z,7.43
2023-01-17T01:09:58.294Z,7.53
2023-01-17T01:10:58.303Z,7.5
2023-01-17T01:11:58.318Z,7.5
2023-01-17T01:12:58.091Z,7.54
2023-01-17T01:13:58.346Z,7.5
2023-01-17T01:14:58.358Z,7.48
2023-01-17T01:15:58.489Z,7.4
2023-01-17T01:16:58.409Z,7.5
2023-01-17T01:17:58.420Z,7.47
2023-01-17T01:18:58.182Z,7.51
2023-01-17T01:19:58.247Z,7.54
2023-01-17T01:20:58.476Z,7.54
2023-01-17T01:21:58.477Z,7.48
2023-01-17T01:22:58.487Z,7.4
2023-01-17T01:23:58.573Z,7.43
2023-01-17T01:24:58.688Z,7.5
2023-01-17T01:25:58.526Z,7.5
2023-01-17T01:26:58.541Z,7.45
2023-01-17T01:27:58.546Z,7.5
2023-01-17T01:28:58.559Z,7.5
2023-01-17T01:29:58.588Z,7.43
2023-01-17T01:30:58.346Z,7.43
2023-01-17T01:31:58.675Z,7.43
2023-01-17T01:32:58.110Z,7.45
2023-01-17T01:33:58.729Z,7.51
2023-01-17T01:34:58.403Z,7.39
2023-01-17T01:35:58.818Z,7.45
2023-01-17T01:36:58.428Z,7.48
2023-01-17T01:37:58.708Z,7.43
2023-01-17T01:38:58.714Z,7.43
2023-01-17T01:39:58.909Z,7.48
2023-01-17T01:40:58.744Z,7.51
2023-01-17T01:41:58.750Z,7.4
2023-01-17T01:42:58.773Z,7.43
2023-01-17T01:43:58.787Z,7.5
2023-01-17T01:44:58.552Z,7.4
2023-01-17T01:45:59.007Z,7.47
2023-01-17T01:46:58.825Z,7.42
2023-01-17T01:47:58.333Z,7.39
2023-01-17T01:48:58.902Z,7.47
2023-01-17T01:49:59.102Z,7.43
2023-01-17T01:50:58.651Z,7.42
2023-01-17T01:51:58.907Z,7.38
2023-01-17T01:52:58.924Z,7.36
2023-01-17T01:53:58.684Z,7.45
2023-01-17T01:54:58.957Z,7.38
2023-01-17T01:55:59.047Z,7.4
2023-01-17T01:56:58.980Z,7.4
2023-01-17T01:57:58.735Z,7.4
2023-01-17T01:58:59.007Z,7.39
2023-01-17T01:59:59.034Z,7.42
2023-01-17T02:00:59.440Z,7.42
2023-01-17T02:01:59.294Z,7.42
2023-01-17T02:02:59.069Z,7.4
2023-01-17T02:03:58.755Z,7.45
2023-01-17T02:04:59.093Z,7.4
2023-01-17T02:05:59.110Z,7.39
2023-01-17T02:06:59.119Z,7.35
2023-01-17T02:07:59.140Z,7.4
2023-01-17T02:08:58.894Z,7.39
2023-01-17T02:09:59.168Z,7.42
2023-01-17T02:10:58.922Z,7.43
2023-01-17T02:11:59.303Z,7.39
2023-01-17T02:12:59.229Z,7.42
2023-01-17T02:13:59.231Z,7.38
2023-01-17T02:14:58.734Z,7.45
2023-01-17T02:15:59.360Z,7.4
2023-01-17T02:16:59.304Z,7.42
2023-01-17T02:17:59.041Z,7.43
2023-01-17T02:18:59.306Z,7.42
2023-01-17T02:19:59.327Z,7.42
2023-01-17T02:20:59.082Z,7.38
2023-01-17T02:21:59.345Z,7.42
2023-01-17T02:22:59.372Z,7.42
2023-01-17T02:23:59.124Z,7.4
2023-01-17T02:24:59.413Z,7.47
2023-01-17T02:25:58.956Z,7.39
2023-01-17T02:26:59.169Z,7.43
2023-01-17T02:27:59.527Z,7.33
2023-01-17T02:28:59.584Z,7.4
2023-01-17T02:29:59.202Z,7.42
2023-01-17T02:30:59.491Z,7.4
2023-01-17T02:31:59.590Z,7.38
2023-01-17T02:32:59.516Z,7.36
2023-01-17T02:33:59.544Z,7.43
2023-01-17T02:34:59.289Z,7.4
2023-01-17T02:35:59.664Z,7.4
2023-01-17T02:36:59.576Z,7.42
2023-01-17T02:37:59.588Z,7.42
2023-01-17T02:38:59.340Z,7.33
2023-01-17T02:39:59.352Z,7.42
2023-01-17T02:40:59.364Z,7.33
2023-01-17T02:41:59.642Z,7.31
2023-01-17T02:42:59.388Z,7.33
2023-01-17T02:43:59.998Z,7.33
2023-01-17T02:44:59.678Z,7.29
2023-01-17T02:45:59.892Z,7.31
2023-01-17T02:46:59.776Z,7.38
2023-01-17T02:47:59.755Z,7.31
2023-01-17T02:48:59.478Z,7.31
2023-01-17T02:49:59.504Z,7.39
2023-01-17T02:50:59.790Z,7.35
2023-01-17T02:51:59.536Z,7.32
2023-01-17T02:52:59.799Z,7.32
2023-01-17T02:53:59.824Z,7.31
2023-01-17T02:54:59.573Z,7.35
2023-01-17T02:55:59.846Z,7.31
2023-01-17T02:56:59.865Z,7.28
2023-01-17T02:57:59.606Z,7.31
2023-01-17T02:58:59.900Z,7.32
2023-01-17T03:00:00.089Z,7.31
2023-01-17T03:00:59.773Z,7.35
2023-01-17T03:02:00.683Z,7.29
2023-01-17T03:02:59.684Z,7.29
2023-01-17T03:03:59.975Z,7.29
2023-01-17T03:04:59.725Z,7.31
2023-01-17T03:06:00.033Z,7.29
2023-01-17T03:07:00.008Z,7.28
2023-01-17T03:08:00.024Z,7.32
2023-01-17T03:09:00.032Z,7.33
2023-01-17T03:10:00.140Z,7.28
2023-01-17T03:11:00.096Z,7.33
2023-01-17T03:12:00.106Z,7.31
2023-01-17T03:13:00.112Z,7.32
2023-01-17T03:13:59.891Z,7.25
2023-01-17T03:15:00.133Z,7.32
2023-01-17T03:16:00.306Z,7.29
2023-01-17T03:16:59.961Z,7.32
2023-01-17T03:18:00.186Z,7.31
2023-01-17T03:19:00.166Z,7.32
2023-01-17T03:20:00.198Z,7.32
2023-01-17T03:21:00.222Z,7.36
2023-01-17T03:22:00.226Z,7.39
2023-01-17T03:23:00.238Z,7.29
2023-01-17T03:24:00.251Z,7.29
2023-01-17T03:25:00.263Z,7.31
2023-01-17T03:26:00.297Z,7.32
2023-01-17T03:27:00.107Z,7.29
2023-01-17T03:28:00.339Z,7.32
2023-01-17T03:29:00.101Z,7.38
2023-01-17T03:30:00.367Z,7.32
2023-01-17T03:31:00.585Z,7.25
2023-01-17T03:32:00.467Z,7.25
2023-01-17T03:33:00.407Z,7.29
2023-01-17T03:34:00.144Z,7.36
2023-01-17T03:35:00.451Z,7.33
2023-01-17T03:36:00.424Z,7.33
2023-01-17T03:37:00.434Z,7.35
2023-01-17T03:37:59.950Z,7.28
2023-01-17T03:39:00.477Z,7.28
2023-01-17T03:40:00.482Z,7.33
2023-01-17T03:41:00.488Z,7.33
2023-01-17T03:42:00.261Z,7.36
2023-01-17T03:43:00.290Z,7.32
2023-01-17T03:44:00.025Z,7.31
2023-01-17T03:45:00.556Z,7.36
2023-01-17T03:46:00.672Z,7.36
2023-01-17T03:47:00.589Z,7.31
2023-01-17T03:48:00.679Z,7.31
2023-01-17T03:49:00.624Z,7.32
2023-01-17T03:50:00.628Z,7.29
2023-01-17T03:51:00.660Z,7.28
2023-01-17T03:52:00.658Z,7.31
2023-01-17T03:53:00.157Z,7.32
2023-01-17T03:54:00.742Z,7.31
2023-01-17T03:55:00.697Z,7.25
2023-01-17T03:56:00.732Z,7.32
2023-01-17T03:57:00.227Z,7.25
2023-01-17T03:58:00.739Z,7.25
2023-01-17T03:59:00.504Z,7.25
2023-01-17T04:00:00.769Z,7.32
2023-01-17T04:01:00.852Z,7.29
2023-01-17T04:02:01.265Z,7.33
2023-01-17T04:03:00.882Z,7.29
2023-01-17T04:04:00.914Z,7.29
2023-01-17T04:05:00.611Z,7.31
2023-01-17T04:06:00.605Z,7.31
2023-01-17T04:07:00.614Z,7.31
2023-01-17T04:08:00.889Z,7.36
2023-01-17T04:09:00.916Z,7.25
2023-01-17T04:10:00.913Z,7.32
2023-01-17T04:11:00.947Z,7.31
2023-01-17T04:12:00.951Z,7.29
2023-01-17T04:13:00.965Z,7.28
2023-01-17T04:14:00.977Z,7.23
2023-01-17T04:15:00.987Z,7.28
2023-01-17T04:16:01.023Z,7.24
2023-01-17T04:17:01.139Z,7.29
2023-01-17T04:18:00.793Z,7.29
2023-01-17T04:19:00.826Z,7.2
2023-01-17T04:20:01.138Z,7.31
2023-01-17T04:21:01.080Z,7.25
2023-01-17T04:22:00.844Z,7.31
2023-01-17T04:23:01.153Z,7.24
2023-01-17T04:24:01.129Z,7.33
2023-01-17T04:25:01.162Z,7.25
2023-01-17T04:26:01.163Z,7.17
2023-01-17T04:27:01.175Z,7.31
2023-01-17T04:28:01.242Z,7.2
2023-01-17T04:29:01.207Z,7.15
2023-01-17T04:30:01.215Z,7.32
2023-01-17T04:31:01.394Z,7.18
2023-01-17T04:32:01.284Z,7.32
2023-01-17T04:33:01.047Z,7.18
2023-01-17T04:34:01.011Z,7.2
2023-01-17T04:35:01.025Z,7.31
2023-01-17T04:36:01.390Z,7.17
2023-01-17T04:37:01.075Z,7.14
2023-01-17T04:38:01.434Z,7.14
2023-01-17T04:39:01.365Z,7.11
2023-01-17T04:40:01.359Z,7.15
2023-01-17T04:41:01.110Z,7.21
2023-01-17T04:42:01.401Z,7.2
2023-01-17T04:43:01.413Z,7.21
2023-01-17T04:44:01.417Z,7.14
2023-01-17T04:45:01.460Z,7.14
2023-01-17T04:46:01.689Z,7.21
2023-01-17T04:47:01.462Z,7.25
2023-01-17T04:48:01.474Z,7.21
2023-01-17T04:49:01.603Z,7.2
2023-01-17T04:50:01.518Z,7.14
2023-01-17T04:51:01.541Z,7.24
2023-01-17T04:52:01.620Z,7.15
2023-01-17T04:53:01.574Z,7.23
2023-01-17T04:54:01.289Z,7.23
2023-01-17T04:55:01.585Z,7.17
2023-01-17T04:56:01.323Z,7.21
2023-01-17T04:57:01.344Z,7.15
2023-01-17T04:58:01.622Z,7.21
2023-01-17T04:59:01.375Z,7.17
2023-01-17T05:00:01.638Z,7.28
2023-01-17T05:01:01.862Z,7.14
2023-01-17T05:02:02.118Z,7.23
2023-01-17T05:03:01.906Z,7.15
2023-01-17T05:04:01.478Z,7.14
2023-01-17T05:05:01.463Z,7.25
2023-01-17T05:06:01.463Z,7.11
2023-01-17T05:07:01.749Z,7.15
2023-01-17T05:08:01.837Z,7.17
2023-01-17T05:09:01.517Z,7.11
2023-01-17T05:10:01.525Z,7.15
2023-01-17T05:11:01.811Z,7.07
2023-01-17T05:12:01.557Z,7.06
2023-01-17T05:13:01.671Z,7.14
2023-01-17T05:14:01.586Z,7.05
2023-01-17T05:15:01.339Z,7.06
2023-01-17T05:16:01.841Z,7.1
2023-01-17T05:17:01.897Z,7.13
2023-01-17T05:18:01.917Z,7.1
2023-01-17T05:19:01.924Z,7.13
2023-01-17T05:20:01.935Z,7.03
2023-01-17T05:21:01.943Z,7.06
2023-01-17T05:22:01.708Z,7.06
2023-01-17T05:23:01.971Z,7.07
2023-01-17T05:24:02.080Z,7.1
2023-01-17T05:25:02.009Z,7.05
2023-01-17T05:26:02.053Z,7.02
2023-01-17T05:27:02.028Z,7.06
2023-01-17T05:28:01.793Z,7.06
2023-01-17T05:29:02.062Z,7.07
2023-01-17T05:30:02.123Z,7.05
2023-01-17T05:31:02.380Z,7.06
2023-01-17T05:32:02.122Z,7.1
2023-01-17T05:33:01.883Z,7.05
2023-01-17T05:34:02.129Z,7.07
2023-01-17T05:35:01.887Z,7.05
2023-01-17T05:36:02.182Z,7.05
2023-01-17T05:37:02.225Z,7.1
2023-01-17T05:38:02.196Z,7.1
2023-01-17T05:39:01.953Z,7.1
2023-01-17T05:40:02.295Z,7.14
2023-01-17T05:41:01.982Z,7.07
2023-01-17T05:42:02.031Z,7.05
2023-01-17T05:43:02.191Z,7.14
2023-01-17T05:44:02.024Z,7.07
2023-01-17T05:45:02.297Z,7.13
2023-01-17T05:46:02.463Z,7.05
2023-01-17T05:47:02.333Z,7.11
2023-01-17T05:48:02.373Z,7.07
2023-01-17T05:49:02.345Z,6.99
2023-01-17T05:50:02.113Z,7.02
2023-01-17T05:51:01.869Z,7.02
2023-01-17T05:52:02.435Z,7.14
2023-01-17T05:53:02.447Z,7.1
2023-01-17T05:54:02.450Z,7.13
2023-01-17T05:55:02.449Z,7.13
2023-01-17T05:56:02.586Z,7.14
2023-01-17T05:57:02.482Z,7.15
2023-01-17T05:58:02.552Z,7.07
2023-01-17T05:59:02.280Z,7.1
2023-01-17T06:00:02.598Z,7.03
2023-01-17T06:01:02.667Z,7.11
2023-01-17T06:02:02.489Z,7.13
2023-01-17T06:03:02.638Z,7
2023-01-17T06:04:02.579Z,7.06
2023-01-17T06:05:05.776Z,7.13
2023-01-17T06:06:02.599Z,7.03
2023-01-17T06:07:02.642Z,7.02
2023-01-17T06:08:02.654Z,7.03
2023-01-17T06:09:02.405Z,7.11
2023-01-17T06:10:02.413Z,7.03
2023-01-17T06:11:02.416Z,7.07
2023-01-17T06:12:02.771Z,7.03
2023-01-17T06:13:02.706Z,7.1
2023-01-17T06:14:02.710Z,7.06
2023-01-17T06:15:02.974Z,7.02
2023-01-17T06:16:02.905Z,7.06
2023-01-17T06:17:02.863Z,7.11
2023-01-17T06:18:02.548Z,7.06
2023-01-17T06:19:02.794Z,7.02
2023-01-17T06:20:02.883Z,7.05
2023-01-17T06:21:02.993Z,7
2023-01-17T06:22:02.926Z,7.02
2023-01-17T06:23:03.004Z,7.02
2023-01-17T06:24:04.393Z,7.06
2023-01-17T06:25:02.616Z,7.05
2023-01-17T06:26:02.889Z,7
2023-01-17T06:27:02.954Z,6.95
2023-01-17T06:28:03.046Z,6.92
2023-01-17T06:29:02.988Z,7.02
2023-01-17T06:30:02.952Z,6.99
2023-01-17T06:31:03.089Z,7.05
2023-01-17T06:32:06.021Z,7
2023-01-17T06:33:03.009Z,6.95
2023-01-17T06:34:02.996Z,6.96
2023-01-17T06:35:02.971Z,7
2023-01-17T06:36:02.973Z,6.97
2023-01-17T06:37:03.061Z,6.96
2023-01-17T06:38:03.117Z,6.99
2023-01-17T06:39:03.070Z,6.95
2023-01-17T06:40:02.569Z,6.93
2023-01-17T06:41:03.262Z,7
2023-01-17T06:42:02.862Z,6.95
2023-01-17T06:43:03.147Z,6.93
2023-01-17T06:44:03.264Z,7
2023-01-17T06:45:03.166Z,6.97
2023-01-17T06:46:03.227Z,6.92
2023-01-17T06:47:03.357Z,6.95
2023-01-17T06:48:02.956Z,7.02
2023-01-17T06:49:03.224Z,6.92
2023-01-17T06:50:03.271Z,6.95
2023-01-17T06:51:03.270Z,6.97
2023-01-17T06:52:02.912Z,6.96
2023-01-17T06:53:02.927Z,6.97
2023-01-17T06:54:03.054Z,6.95
2023-01-17T06:55:03.304Z,6.95
2023-01-17T06:56:03.076Z,6.92
2023-01-17T06:57:03.342Z,6.96
2023-01-17T06:58:03.379Z,6.92
2023-01-17T06:59:03.362Z,6.96
2023-01-17T07:00:03.470Z,6.96
2023-01-17T07:01:03.655Z,7.02
2023-01-17T07:02:03.154Z,6.96
2023-01-17T07:03:03.201Z,6.88
2023-01-17T07:04:03.379Z,6.85
2023-01-17T07:05:03.449Z,6.89
2023-01-17T07:06:03.217Z,6.85
2023-01-17T07:07:03.487Z,6.85
2023-01-17T07:08:03.521Z,6.87
2023-01-17T07:09:03.514Z,6.93
2023-01-17T07:10:03.580Z,6.92
2023-01-17T07:11:03.535Z,6.93
2023-01-17T07:12:03.304Z,6.93
2023-01-17T07:13:03.336Z,6.95
2023-01-17T07:14:03.581Z,6.92
2023-01-17T07:15:03.577Z,7.03
2023-01-17T07:16:03.898Z,6.88
2023-01-17T07:17:03.614Z,6.99
2023-01-17T07:18:03.386Z,6.95
2023-01-17T07:19:03.687Z,6.99
2023-01-17T07:20:03.409Z,7
2023-01-17T07:21:03.434Z,6.92
2023-01-17T07:22:03.707Z,6.97
2023-01-17T07:23:03.452Z,6.99
2023-01-17T07:24:03.477Z,6.97
2023-01-17T07:25:03.790Z,6.85
2023-01-17T07:26:03.760Z,6.89
2023-01-17T07:27:03.501Z,6.99
2023-01-17T07:28:03.526Z,7.02
2023-01-17T07:29:03.540Z,6.87
2023-01-17T07:30:03.819Z,6.89
2023-01-17T07:31:03.959Z,6.88
2023-01-17T07:32:04.002Z,6.96
2023-01-17T07:33:03.609Z,6.96
2023-01-17T07:34:03.634Z,6.87
2023-01-17T07:35:03.892Z,6.88
2023-01-17T07:36:03.637Z,6.96
2023-01-17T07:37:03.951Z,6.96
2023-01-17T07:38:03.971Z,6.96
2023-01-17T07:39:06.122Z,6.95
2023-01-17T07:40:04.005Z,6.92
2023-01-17T07:41:04.014Z,6.93
2023-01-17T07:42:04.004Z,6.88
2023-01-17T07:43:03.991Z,6.89
2023-01-17T07:44:04.024Z,6.95
2023-01-17T07:45:04.039Z,6.92
2023-01-17T07:46:06.830Z,6.85
2023-01-17T07:47:03.810Z,6.82
2023-01-17T07:48:04.153Z,6.85
2023-01-17T07:49:03.983Z,6.89
2023-01-17T07:50:04.108Z,6.87
2023-01-17T07:51:04.121Z,6.88
2023-01-17T07:52:04.124Z,6.92
2023-01-17T07:53:04.220Z,6.88
2023-01-17T07:54:04.161Z,6.77
2023-01-17T07:55:03.934Z,6.82
2023-01-17T07:56:03.929Z,6.89
2023-01-17T07:57:04.253Z,6.81
2023-01-17T07:58:06.569Z,6.79
2023-01-17T07:59:03.997Z,6.79
2023-01-17T08:00:03.995Z,6.88
2023-01-17T08:01:04.818Z,6.85
2023-01-17T08:02:04.725Z,6.84
2023-01-17T08:03:03.798Z,6.84
2023-01-17T08:04:04.591Z,6.82
2023-01-17T08:05:04.344Z,6.79
2023-01-17T08:06:04.092Z,6.82
2023-01-17T08:07:04.096Z,6.79
2023-01-17T08:08:04.379Z,6.81
2023-01-17T08:09:04.398Z,6.81
2023-01-17T08:10:04.453Z,6.88
2023-01-17T08:11:04.430Z,6.81
2023-01-17T08:12:04.607Z,6.78
2023-01-17T08:13:04.190Z,6.79
2023-01-17T08:14:04.221Z,6.85
2023-01-17T08:15:04.457Z,6.79
2023-01-17T08:16:04.727Z,6.78
2023-01-17T08:17:04.519Z,6.81
2023-01-17T08:18:04.501Z,6.81
2023-01-17T08:19:04.519Z,6.79
2023-01-17T08:20:04.671Z,6.84
2023-01-17T08:21:04.025Z,6.85
2023-01-17T08:22:04.308Z,6.88
2023-01-17T08:23:04.324Z,6.84
2023-01-17T08:24:04.619Z,6.82
2023-01-17T08:25:04.609Z,6.85
2023-01-17T08:26:04.626Z,6.85
2023-01-17T08:27:04.380Z,6.79
2023-01-17T08:28:04.128Z,6.81
2023-01-17T08:29:04.668Z,6.81
2023-01-17T08:30:04.678Z,6.85
2023-01-17T08:31:04.747Z,6.84
2023-01-17T08:32:04.731Z,6.75
2023-01-17T08:33:04.717Z,6.82
2023-01-17T08:34:04.756Z,6.7
2023-01-17T08:35:04.758Z,6.7
2023-01-17T08:36:04.894Z,6.82
2023-01-17T08:37:04.537Z,6.74
2023-01-17T08:38:04.830Z,6.74
2023-01-17T08:39:04.820Z,6.77
2023-01-17T08:40:04.846Z,6.75
2023-01-17T08:41:04.833Z,6.72
2023-01-17T08:42:04.631Z,6.84
2023-01-17T08:43:04.877Z,6.72
2023-01-17T08:44:04.890Z,6.75
2023-01-17T08:45:04.925Z,6.72
2023-01-17T08:46:04.915Z,6.7
2023-01-17T08:47:04.973Z,6.74
2023-01-17T08:48:04.964Z,6.74
2023-01-17T08:49:05.052Z,6.72
2023-01-17T08:50:04.739Z,6.69
2023-01-17T08:51:04.735Z,6.72
2023-01-17T08:52:05.086Z,6.74
2023-01-17T08:53:05.990Z,6.66
2023-01-17T08:54:05.144Z,6.75
2023-01-17T08:55:05.066Z,6.7
2023-01-17T08:56:05.091Z,6.72
2023-01-17T08:57:04.809Z,6.74
2023-01-17T08:58:04.836Z,6.7
2023-01-17T08:59:04.843Z,6.69
2023-01-17T09:00:05.131Z,6.75
2023-01-17T09:01:05.781Z,6.7
2023-01-17T09:02:05.613Z,6.66
2023-01-17T09:03:05.414Z,6.72
2023-01-17T09:04:05.096Z,6.7
2023-01-17T09:05:05.191Z,6.67
2023-01-17T09:06:05.372Z,6.66
2023-01-17T09:07:04.963Z,6.66
2023-01-17T09:08:05.359Z,6.69
2023-01-17T09:09:05.400Z,6.7
2023-01-17T09:10:04.749Z,6.63
2023-01-17T09:11:04.764Z,6.69
2023-01-17T09:12:05.678Z,6.64
2023-01-17T09:13:04.790Z,6.7
2023-01-17T09:14:05.442Z,6.64
2023-01-17T09:15:05.431Z,6.67
2023-01-17T09:16:05.411Z,6.66
2023-01-17T09:17:05.090Z,6.66
2023-01-17T09:18:05.384Z,6.79
2023-01-17T09:19:05.413Z,6.66
2023-01-17T09:20:05.454Z,6.7
2023-01-17T09:21:05.417Z,6.7
2023-01-17T09:22:05.436Z,6.66
2023-01-17T09:23:05.199Z,6.7
2023-01-17T09:24:05.601Z,6.72
2023-01-17T09:25:05.212Z,6.64
2023-01-17T09:26:05.506Z,6.72
2023-01-17T09:27:05.499Z,6.74
2023-01-17T09:28:05.544Z,6.66
2023-01-17T09:29:05.286Z,6.7
2023-01-17T09:30:05.275Z,6.64
2023-01-17T09:31:05.390Z,6.75
2023-01-17T09:32:05.568Z,6.66
2023-01-17T09:33:05.344Z,6.63
2023-01-17T09:34:05.348Z,6.72
2023-01-17T09:35:05.859Z,6.64
2023-01-17T09:36:05.649Z,6.72
2023-01-17T09:37:05.648Z,6.64
2023-01-17T09:38:05.652Z,6.64
2023-01-17T09:39:05.676Z,6.74
2023-01-17T09:40:05.781Z,6.66
2023-01-17T09:41:05.694Z,6.67
2023-01-17T09:42:05.720Z,6.69
2023-01-17T09:43:05.717Z,6.69
2023-01-17T09:44:05.752Z,6.64
2023-01-17T09:45:05.291Z,6.66
2023-01-17T09:46:05.775Z,6.64
2023-01-17T09:47:05.879Z,6.69
2023-01-17T09:48:05.533Z,6.66
2023-01-17T09:49:05.841Z,6.69
2023-01-17T09:50:05.554Z,6.6
2023-01-17T09:51:05.850Z,6.59
2023-01-17T09:52:05.858Z,6.64
2023-01-17T09:53:05.876Z,6.64
2023-01-17T09:54:05.880Z,6.7
2023-01-17T09:55:07.941Z,6.63
2023-01-17T09:56:05.989Z,6.64
2023-01-17T09:57:05.921Z,6.67
2023-01-17T09:58:05.931Z,6.62
2023-01-17T09:59:05.948Z,6.59
2023-01-17T10:00:08.964Z,6.64
2023-01-17T10:01:06.257Z,6.63
2023-01-17T10:02:06.493Z,6.62
2023-01-17T10:03:06.166Z,6.59
2023-01-17T10:04:06.175Z,6.64
2023-01-17T10:05:06.372Z,6.7
2023-01-17T10:06:06.052Z,6.67
2023-01-17T10:07:06.092Z,6.67
2023-01-17T10:08:09.258Z,6.64
2023-01-17T10:09:06.096Z,6.69
2023-01-17T10:10:06.103Z,6.67
2023-01-17T10:11:06.131Z,6.6
2023-01-17T10:12:06.744Z,6.66
2023-01-17T10:13:06.153Z,6.72
2023-01-17T10:14:06.179Z,6.63
2023-01-17T10:15:06.188Z,6.69
2023-01-17T10:16:06.251Z,6.7
2023-01-17T10:17:06.235Z,6.75
2023-01-17T10:18:06.254Z,6.69
2023-01-17T10:19:06.023Z,6.69
2023-01-17T10:20:06.275Z,6.7
2023-01-17T10:21:06.311Z,6.74
2023-01-17T10:22:06.026Z,6.69
2023-01-17T10:23:05.790Z,6.67
2023-01-17T10:24:06.381Z,6.7
2023-01-17T10:25:06.336Z,6.69
2023-01-17T10:26:06.351Z,6.7
2023-01-17T10:27:06.366Z,6.62
2023-01-17T10:28:06.466Z,6.64
2023-01-17T10:29:06.167Z,6.64
2023-01-17T10:30:06.160Z,6.63
2023-01-17T10:31:06.596Z,6.57
2023-01-17T10:32:06.466Z,6.63
2023-01-17T10:33:06.443Z,6.63
2023-01-17T10:34:06.453Z,6.6
2023-01-17T10:35:06.503Z,6.6
2023-01-17T10:36:06.281Z,6.6
2023-01-17T10:37:06.258Z,6.64
2023-01-17T10:38:06.499Z,6.64
2023-01-17T10:39:06.293Z,6.64
2023-01-17T10:40:06.553Z,6.66
2023-01-17T10:41:06.626Z,6.63
2023-01-17T10:42:06.587Z,6.62
2023-01-17T10:43:06.342Z,6.62
2023-01-17T10:44:06.722Z,6.69
2023-01-17T10:45:06.383Z,6.63
2023-01-17T10:46:06.493Z,6.62
2023-01-17T10:47:06.393Z,6.62
2023-01-17T10:48:06.657Z,6.6
2023-01-17T10:49:06.668Z,6.56
2023-01-17T10:50:06.182Z,6.66
2023-01-17T10:51:06.430Z,6.69
2023-01-17T10:52:06.713Z,6.62
2023-01-17T10:53:06.741Z,6.63
2023-01-17T10:54:06.926Z,6.62
2023-01-17T10:55:06.767Z,6.64
2023-01-17T10:56:06.504Z,6.64
2023-01-17T10:57:06.781Z,6.64
2023-01-17T10:58:06.805Z,6.66
2023-01-17T10:59:06.813Z,6.6
2023-01-17T11:00:07.029Z,6.63
2023-01-17T11:01:07.393Z,6.59
2023-01-17T11:02:06.984Z,6.6
2023-01-17T11:03:07.145Z,6.6
2023-01-17T11:04:06.640Z,6.64
2023-01-17T11:05:06.899Z,6.62
2023-01-17T11:06:06.919Z,6.64
2023-01-17T11:07:06.945Z,6.62
2023-01-17T11:08:06.688Z,6.59
2023-01-17T11:09:06.884Z,6.69
2023-01-17T11:10:07.049Z,6.62
2023-01-17T11:11:06.998Z,6.67
2023-01-17T11:12:07.027Z,6.64
2023-01-17T11:13:07.013Z,6.64
2023-01-17T11:14:06.768Z,6.69
2023-01-17T11:15:07.059Z,6.69
2023-01-17T11:16:07.511Z,6.6
2023-01-17T11:17:06.834Z,6.7
2023-01-17T11:18:07.108Z,6.67
2023-01-17T11:19:06.868Z,6.67
2023-01-17T11:20:07.135Z,6.67
2023-01-17T11:21:07.290Z,6.63
2023-01-17T11:22:07.209Z,6.66
2023-01-17T11:23:07.324Z,6.6
2023-01-17T11:24:07.211Z,6.69
2023-01-17T11:25:07.008Z,6.67
2023-01-17T11:26:07.020Z,6.69
2023-01-17T11:27:06.969Z,6.7
2023-01-17T11:28:07.257Z,6.66
2023-01-17T11:29:06.984Z,6.7
2023-01-17T11:30:07.107Z,6.63
2023-01-17T11:31:07.207Z,6.7
2023-01-17T11:32:07.382Z,6.66
2023-01-17T11:33:07.327Z,6.69
2023-01-17T11:34:07.323Z,6.64
2023-01-17T11:35:07.072Z,6.67
2023-01-17T11:36:07.354Z,6.62
2023-01-17T11:37:07.155Z,6.69
2023-01-17T11:38:07.175Z,6.75
2023-01-17T11:39:07.174Z,6.66
2023-01-17T11:40:07.406Z,6.72
2023-01-17T11:41:07.164Z,6.69
2023-01-17T11:42:07.176Z,6.62
2023-01-17T11:43:07.222Z,6.74
2023-01-17T11:44:07.467Z,6.64
2023-01-17T11:45:07.479Z,6.66
2023-01-17T11:46:07.704Z,6.74
2023-01-17T11:47:07.265Z,6.69
2023-01-17T11:48:07.619Z,6.63
2023-01-17T11:49:07.536Z,6.63
2023-01-17T11:50:07.550Z,6.67
2023-01-17T11:51:07.313Z,6.74
2023-01-17T11:52:07.819Z,6.63
2023-01-17T11:53:07.336Z,6.67
2023-01-17T11:54:07.614Z,6.64
2023-01-17T11:55:07.543Z,6.63
2023-01-17T11:56:07.526Z,6.69
2023-01-17T11:57:07.910Z,6.69
2023-01-17T11:58:07.827Z,6.69
2023-01-17T11:59:07.828Z,6.7
2023-01-17T12:00:07.744Z,6.69
2023-01-17T12:01:07.934Z,6.66
2023-01-17T12:02:07.641Z,6.75
2023-01-17T12:03:07.578Z,6.66
2023-01-17T12:04:08.025Z,6.69
2023-01-17T12:05:07.482Z,6.66
2023-01-17T12:06:07.831Z,6.69
2023-01-17T12:07:07.591Z,6.75
2023-01-17T12:08:07.548Z,6.82
2023-01-17T12:09:07.874Z,6.82
2023-01-17T12:10:07.718Z,6.78
2023-01-17T12:11:07.618Z,6.78
2023-01-17T12:12:09.320Z,6.85
2023-01-17T12:13:07.650Z,6.84
2023-01-17T12:14:07.947Z,6.82
2023-01-17T12:15:07.655Z,6.85
2023-01-17T12:16:07.559Z,6.82
2023-01-17T12:17:07.983Z,6.88
2023-01-17T12:18:07.951Z,6.84
2023-01-17T12:19:07.976Z,6.87
2023-01-17T12:20:08.056Z,6.93
2023-01-17T12:21:07.992Z,6.88
2023-01-17T12:22:08.012Z,6.92
2023-01-17T12:23:08.106Z,6.92
2023-01-17T12:24:08.036Z,6.88
2023-01-17T12:25:08.160Z,6.93
2023-01-17T12:26:07.843Z,6.89
2023-01-17T12:27:07.825Z,6.96
2023-01-17T12:28:08.096Z,6.97
2023-01-17T12:29:07.612Z,6.95
2023-01-17T12:30:08.251Z,6.93
2023-01-17T12:31:08.102Z,6.95
2023-01-17T12:32:08.153Z,6.99
2023-01-17T12:33:07.971Z,6.95
2023-01-17T12:34:10.478Z,6.97
2023-01-17T12:35:08.204Z,7.02
2023-01-17T12:36:08.344Z,7.02
2023-01-17T12:37:08.251Z,6.97
2023-01-17T12:38:11.392Z,6.95
2023-01-17T12:39:08.303Z,6.92
2023-01-17T12:40:08.277Z,6.95
2023-01-17T12:41:08.022Z,6.84
2023-01-17T12:42:08.356Z,6.95
2023-01-17T12:43:08.305Z,6.89
2023-01-17T12:44:08.061Z,6.87
2023-01-17T12:45:08.367Z,6.88
2023-01-17T12:46:08.392Z,6.96
2023-01-17T12:47:08.379Z,6.88
2023-01-17T12:48:08.118Z,6.93
2023-01-17T12:49:08.405Z,6.93
2023-01-17T12:50:08.439Z,6.92
2023-01-17T12:51:08.435Z,6.88
2023-01-17T12:52:08.519Z,6.88
2023-01-17T12:53:08.451Z,6.89
2023-01-17T12:54:08.201Z,6.92
2023-01-17T12:55:08.209Z,6.74
2023-01-17T12:56:08.233Z,6.79
2023-01-17T12:57:08.504Z,6.84
2023-01-17T12:58:08.545Z,6.89
2023-01-17T12:59:08.342Z,6.84
2023-01-17T13:00:08.570Z,6.85
2023-01-17T13:01:08.758Z,6.77
2023-01-17T13:02:08.727Z,6.77
2023-01-17T13:03:08.102Z,6.81
2023-01-17T13:04:08.362Z,6.81
2023-01-17T13:05:08.617Z,6.84
2023-01-17T13:06:08.429Z,6.81
2023-01-17T13:07:08.725Z,6.87
2023-01-17T13:08:08.737Z,6.84
2023-01-17T13:09:08.700Z,6.87
2023-01-17T13:10:08.748Z,6.88
2023-01-17T13:11:08.707Z,6.84
2023-01-17T13:12:08.919Z,6.89
2023-01-17T13:13:08.483Z,6.88
2023-01-17T13:14:08.758Z,6.89
2023-01-17T13:15:08.786Z,6.87
2023-01-17T13:16:09.011Z,6.81
2023-01-17T13:17:08.541Z,6.88
2023-01-17T13:18:08.566Z,6.88
2023-01-17T13:19:08.616Z,6.89
2023-01-17T13:20:08.863Z,6.89
2023-01-17T13:21:08.861Z,6.84
2023-01-17T13:22:08.644Z,6.84
2023-01-17T13:23:08.891Z,6.85